My Meet Scores
Mia Gavros, Oak Lawn Pirouette's Gymnastics - MyMeetScores.com
Top100 | Top Teams | Upcoming Meets | Completed Meets | Latest | Add Scores | Help| Support | Bookmark and Share

Mia Gavros, Oak Lawn Pirouette's Gymnastics
Personal Bests
LevelVault BarsBeamFloorAA
48.4008.725 7.8008.90033.375
58.8258.475 7.5759.00033.600
69.1009.275 9.5259.30036.550
78.9259.050 8.9759.35035.675
Meet Scores
Date Meet Team Session Level Division Vault Bars Beam Floor AA
2020-02-14 Midwest Open Oak Lawn Pirouette's Gymnastics 02 7 Junior A 8.450 17 8.100 19 8.750 15 9.075 17 34.375 19
2020-01-31 Big Chill Oak Lawn Pirouette's Gymnastics 1 7 12 & 13 8.500 10T 9.050 8T 8.975 11 9.150 5 35.675 9
2020-01-24 Uga Invitational Oak Lawn Pirouette's Gymnastics 2A 7 Jr B 8.600 11T 8.750 8 8.600 11 9.350 6T 35.300 8
2020-01-10 St Jude Benefit Meet Oak Lawn Pirouette's Gymnastics 5B 7 Jr B 8.300 18 7.700 15 7.300 17 9.275 14T 32.575 17
2019-12-20 2019 Women's Hawaiian Pineapple Classic Oak Lawn Pirouette's Gymnastics 5A 7 Age 12 8.925 13 7.550 20 8.600 17 8.550 17 33.625 20
2019-11-08 Illinois Judges Cup Oak Lawn Pirouette's Gymnastics P2 7 All Ages 8.925 27T 8.850 7 8.525 21 8.625 29 34.925 17T
2019-03-15 Illinois State Championship Level 6,9,10 Oak Lawn Pirouette's Gymnastics 12 6 Jr F 9.100 11T 9.275 9 8.875 19 9.300 17 36.550 14T
2019-02-23 Kinetic Classic 2019 Oak Lawn Pirouette's Gymnastics 1 6 Younger 8.625 14 8.525 13 9.525 4 9.300 12 35.975 11
2019-02-01 The Big Chill Oak Lawn Pirouette's Gymnastics 1 6 9 to 11 yr 0.000 11 7.875 11 8.775 11 9.175 5T 34.075 11
2019-01-25 UGA Invitational Oak Lawn Pirouette's Gymnastics A08 6 Jr A 8.850 10 9.075 6 9.075 8 8.950 10 35.950 9
2019-01-11 St Jude Benefit Meet Oak Lawn Pirouette's Gymnastics 1B 6 Sr A 8.525 10 9.125 4 7.725 15 9.075 11T 34.450 13
2018-12-14 Hawaiian Pineapple Classic Oak Lawn Pirouette's Gymnastics 1A 6 Age11 8.600 8 8.650 8 8.850 7T 9.275 6T 35.375 7
2018-02-17 Women's Midwest Open Oak Lawn Pirouette's Gymnastics 01 5 Jr A 8.725 12 8.475 15T 7.575 16 8.550 15 33.325 16
2018-02-01 The Big Chill Oak Lawn Pirouette's Gymnastics 1 5 10 Under 8.450 4T 7.900 6 7.425 7 8.550 7 32.325 6
2018-01-26 2018 UGA Classic Oak Lawn Pirouette's Gymnastics B8 5 Child 8.825 10 8.375 14 7.400 16 9.000 11 33.600 15
2017-12-14 2017 Women's Hawaiian Pineapple Classic Oak Lawn Pirouette's Gymnastics 5B 5 10 8.700 8T 8.200 9T 7.100 18 8.075 13T 32.075 15
2017-11-10 Illinois NAWGJ Judges Cup 2017 Oak Lawn Pirouette's Gymnastics G5 5 All Ages 8.400 57T 7.650 42T 6.375 64 8.350 33 30.775 59
2017-02-02 The Big Chill Oak Lawn Pirouette's Gymnastics 5 4 9 Year Old 8.400 7T 7.900 11T 6.900 17 8.175 9T 31.375 12
2017-01-27 2017 UGA Invitational Oak Lawn Pirouette's Gymnastics C12 4 Child 8.300 11 8.725 10 7.450 17 8.900 8T 33.375 13
2017-01-05 Leenda's Island Adventure Oak Lawn Pirouette's Gymnastics P11 4 9 Year Old 8.175 7 8.000 11 7.800 15 8.150 8T 32.125 12
Get your scores on
a t-shirt, pin, or hoodie

www.lazysuits.com